createdAt,value
2022-12-03T00:01:18.644Z,6.29
2022-12-03T00:16:20.245Z,6.22
2022-12-03T00:31:23.621Z,6.36
2022-12-03T00:46:25.440Z,6.33
2022-12-03T01:01:27.087Z,6.24
2022-12-03T01:16:28.620Z,6.53
2022-12-03T01:31:49.022Z,6.50
2022-12-03T01:46:52.109Z,6.22
2022-12-03T02:01:53.752Z,6.29
2022-12-03T02:16:55.292Z,6.24
2022-12-03T02:31:56.894Z,6.18
2022-12-03T02:46:58.464Z,7.17
2022-12-03T03:02:01.317Z,6.72
2022-12-03T03:17:03.379Z,6.00
2022-12-03T03:32:05.150Z,6.19
2022-12-03T03:47:06.912Z,5.98
2022-12-03T04:02:16.652Z,6.13
2022-12-03T04:17:18.098Z,6.38
2022-12-03T04:32:38.350Z,6.23
2022-12-03T04:47:40.216Z,6.22
2022-12-03T05:02:41.743Z,5.54
2022-12-03T05:17:43.279Z,5.93
2022-12-03T05:32:44.779Z,5.82
2022-12-03T05:47:46.282Z,5.78
2022-12-03T06:02:47.993Z,6.52
2022-12-03T06:17:50.068Z,6.16
2022-12-03T06:32:51.617Z,6.66
2022-12-03T06:47:53.136Z,6.21
2022-12-03T07:02:55.160Z,6.78
2022-12-03T07:17:56.680Z,6.48
2022-12-03T07:32:58.137Z,6.60
2022-12-03T07:47:59.601Z,6.81
2022-12-03T08:03:01.124Z,7.14
2022-12-03T08:18:05.397Z,6.93
2022-12-03T08:33:14.410Z,6.66
2022-12-03T08:48:18.705Z,7.94
2022-12-03T09:03:20.224Z,6.99
2022-12-03T09:18:21.706Z,7.31
2022-12-03T09:33:23.239Z,7.84
2022-12-03T09:48:24.739Z,7.73
2022-12-03T10:03:30.205Z,7.76
2022-12-03T10:18:38.349Z,8.64
2022-12-03T10:33:44.975Z,8.27
2022-12-03T10:49:06.417Z,8.54
2022-12-03T11:04:15.089Z,7.87
2022-12-03T11:19:17.881Z,8.46
2022-12-03T11:34:22.105Z,8.27
2022-12-03T11:49:37.843Z,8.01
2022-12-03T12:04:42.992Z,8.08
2022-12-03T12:19:46.427Z,8.29
2022-12-03T12:34:51.175Z,8.73
2022-12-03T12:49:52.998Z,8.11
2022-12-03T13:04:54.789Z,8.07
2022-12-03T13:20:05.535Z,7.81
2022-12-03T13:35:26.780Z,7.81
2022-12-03T13:50:28.187Z,7.85
2022-12-03T14:05:29.763Z,7.75
2022-12-03T14:20:31.883Z,7.87
2022-12-03T14:35:33.408Z,7.75
2022-12-03T14:50:34.952Z,7.81
2022-12-03T15:05:36.515Z,8.21
2022-12-03T15:20:39.114Z,7.97
2022-12-03T15:35:42.601Z,8.21
2022-12-03T15:50:44.071Z,8.14
2022-12-03T16:05:45.558Z,8.24
2022-12-03T16:20:47.045Z,7.84
2022-12-03T16:35:49.070Z,7.71
2022-12-03T16:50:50.663Z,7.99
2022-12-03T17:05:52.209Z,8.02
2022-12-03T17:20:53.746Z,8.09
2022-12-03T17:35:55.240Z,8.00
2022-12-03T17:50:58.210Z,8.08
2022-12-03T18:05:59.764Z,7.93
2022-12-03T18:21:02.252Z,7.58
2022-12-03T18:36:04.882Z,7.53
2022-12-03T18:51:16.584Z,7.76
2022-12-03T19:06:20.412Z,7.43
2022-12-03T19:21:22.130Z,7.71
2022-12-03T19:36:25.625Z,7.67
2022-12-03T19:51:35.927Z,7.81
2022-12-03T20:06:39.160Z,7.76
2022-12-03T20:21:41.739Z,7.64
2022-12-03T20:36:44.225Z,7.38
2022-12-03T20:51:45.841Z,7.28
2022-12-03T21:06:47.381Z,7.05
2022-12-03T21:21:49.117Z,7.34
2022-12-03T21:36:50.674Z,6.86
2022-12-03T21:51:52.370Z,6.68
2022-12-03T22:16:09.026Z,5.83
2022-12-03T22:31:11.084Z,5.70
2022-12-03T22:46:13.351Z,5.85
2022-12-03T23:01:22.517Z,5.06
2022-12-03T23:16:26.248Z,4.57
2022-12-03T23:31:29.693Z,4.70
2022-12-03T23:46:31.352Z,4.62
